Bangor, ME

9:42 AM EDT on April 21, 2015 (GMT -0400)
Bangor International | | Change Station
CLOSE
Current Station
Airport
Location: Bangor,
Elevation: 190 ft
Nearby Weather Stations
Active Advisory: Flood Warning Active Notice: Record Report, Public Information Statement

Elev 190 ft 44.80 °N, 68.82 °W | Updated 49 minutes ago

Rain
Rain
45 °F
Feels Like 37 °F
N
18
Wind Variable Wind from ESE
Gusts 29 mph

Today
High -- | Low -- °F
--% Chance of Precip.
Yesterday
High -- | Low -- °F
Precip. -- in
5:41 AM 7:27 PM
Waxing Crescent, 10% visible
Pressure 29.72 in
Visibility 5.0 miles
Clouds Mostly Cloudy 1300 ft
Mostly Cloudy 1700 ft
Overcast 2200 ft
Windchill 37 °F
Dew Point 42 °F
Humidity 90%
Rainfall 0.30 in
Snow Depth Not available.
UV 1 out of 12
Pollen 1.00 out of 12
Air Quality Not available.
Flu Activity Regional
METAR KBGR 211253Z 12016G25KT 5SM -RA BR BKN013 BKN017 OVC022 07/06 A2971 RMK AO2 PK WND 14030/1233 PRESFR SLP062 P0006 T00720056

More Conditions Fewer Conditions

Pressure 29.72 in
Visibility 5.0 miles
Clouds Mostly Cloudy 1300 ft
Mostly Cloudy 1700 ft
Overcast 2200 ft
Windchill 37 °F
Dew Point 42 °F
Humidity 90%
Rainfall 0.30 in
Snow Depth Not available.
UV 1 out of 12
Pollen 1.00 out of 12
Air Quality Not available.
Flu Activity Regional
METAR KBGR 211253Z 12016G25KT 5SM -RA BR BKN013 BKN017 OVC022 07/06 A2971 RMK AO2 PK WND 14030/1233 PRESFR SLP062 P0006 T00720056

More Conditions Fewer Conditions

10-Day Weather Forecast

Almanac

Astronomy

Apr. 21, 2015 Rise Set
Actual Time
Civil Twilight
Nautical Twilight
Astronomical Twilight
Moon
Length of Visible Light
Length of Day
Tomorrow will be .
, % of the Moon is Illuminated

Today's Extremes

State Highs State Lows

Community

WunderPhotos

Upload Photos

1,815,383 photos uploaded!

WunderBlogs® & News

Nearby

Air Quality

  Air Quality AQ Index Pollutant
Not available.

Snow Depth

Station Depth Elevation

Earthquake Activity

City Distance Mag. Time & Date
Minimum magnitude displayed is 2.5.

Coastal Water Temperatures

Place Temperature

Stations

Nearby Weather Stations

Station Location Temp. Windchill Dew Point Humidity Wind Precip. Elev Updated Type
                   
Flood Warning
Statement as of 5:35 AM EDT on April 21, 2015

The Flood Warning continues for
the Mattawamkeag River above Mattawamkeag
* until further notice... or until the warning is cancelled.
* At 5:15 am Tuesday the stage was 13.5 feet
* minor flooding is occurring and minor flooding is forecast.
* Flood stage is 13.5 feet.
* Forecast... the river will continue rising to near 13.8 feet by
early Thursday morning. Additional rises may be possible
thereafter.


Lat... Lon 4557 6838 4560 6819 4572 6808 4566 6794
      4551 6810 4546 6835